sensor_id;sensor_type;location;lat;lon;timestamp;pressure;altitude;pressure_sealevel;temperature;humidity
76195;BME280;64964;48.694;21.206;2022-12-24T00:01:12;97390.91;;;2.84;84.52
76195;BME280;64964;48.694;21.206;2022-12-24T00:03:37;97392.28;;;2.88;84.41
76195;BME280;64964;48.694;21.206;2022-12-24T00:06:04;97388.72;;;2.89;84.16
76195;BME280;64964;48.694;21.206;2022-12-24T00:08:30;97381.72;;;2.90;84.16
76195;BME280;64964;48.694;21.206;2022-12-24T00:10:55;97385.97;;;2.91;84.27
76195;BME280;64964;48.694;21.206;2022-12-24T00:13:21;97381.44;;;2.93;84.13
76195;BME280;64964;48.694;21.206;2022-12-24T00:15:46;97383.91;;;2.94;84.18
76195;BME280;64964;48.694;21.206;2022-12-24T00:18:11;97388.97;;;2.96;84.18
76195;BME280;64964;48.694;21.206;2022-12-24T00:20:37;97384.31;;;2.99;84.01
76195;BME280;64964;48.694;21.206;2022-12-24T00:23:02;97392.84;;;3.02;84.27
76195;BME280;64964;48.694;21.206;2022-12-24T00:25:27;97391.75;;;3.04;84.10
76195;BME280;64964;48.694;21.206;2022-12-24T00:27:53;97395.88;;;3.07;84.01
76195;BME280;64964;48.694;21.206;2022-12-24T00:30:18;97396.53;;;3.09;84.00
76195;BME280;64964;48.694;21.206;2022-12-24T00:32:43;97399.03;;;3.10;83.92
76195;BME280;64964;48.694;21.206;2022-12-24T00:35:09;97393.94;;;3.09;83.70
76195;BME280;64964;48.694;21.206;2022-12-24T00:37:34;97391.31;;;3.09;83.68
76195;BME280;64964;48.694;21.206;2022-12-24T00:39:59;97393.81;;;3.10;83.70
76195;BME280;64964;48.694;21.206;2022-12-24T00:42:25;97387.78;;;3.10;83.62
76195;BME280;64964;48.694;21.206;2022-12-24T00:44:50;97387.63;;;3.11;83.73
76195;BME280;64964;48.694;21.206;2022-12-24T00:47:15;97384.03;;;3.12;83.66
76195;BME280;64964;48.694;21.206;2022-12-24T00:49:41;97380.47;;;3.13;83.63
76195;BME280;64964;48.694;21.206;2022-12-24T00:52:06;97366.47;;;3.14;83.46
76195;BME280;64964;48.694;21.206;2022-12-24T00:54:31;97363.84;;;3.14;83.66
76195;BME280;64964;48.694;21.206;2022-12-24T00:56:57;97343.78;;;3.15;83.50
76195;BME280;64964;48.694;21.206;2022-12-24T00:59:22;97345.56;;;3.14;83.35
76195;BME280;64964;48.694;21.206;2022-12-24T01:01:48;97334.31;;;3.14;83.35
76195;BME280;64964;48.694;21.206;2022-12-24T01:04:13;97343.91;;;3.13;83.47
76195;BME280;64964;48.694;21.206;2022-12-24T01:06:57;97346.66;;;3.12;83.38
76195;BME280;64964;48.694;21.206;2022-12-24T01:09:22;97347.38;;;3.14;83.69
76195;BME280;64964;48.694;21.206;2022-12-24T01:11:48;97344.88;;;3.12;83.45
76195;BME280;64964;48.694;21.206;2022-12-24T01:14:13;97342.25;;;3.12;83.57
76195;BME280;64964;48.694;21.206;2022-12-24T01:16:38;97342.25;;;3.12;83.29
76195;BME280;64964;48.694;21.206;2022-12-24T01:19:04;97354.50;;;3.12;83.34
76195;BME280;64964;48.694;21.206;2022-12-24T01:21:29;97361.78;;;3.08;83.30
76195;BME280;64964;48.694;21.206;2022-12-24T01:23:55;97351.59;;;3.05;83.23
76195;BME280;64964;48.694;21.206;2022-12-24T01:26:20;97351.34;;;2.98;83.04
76195;BME280;64964;48.694;21.206;2022-12-24T01:28:45;97340.75;;;2.90;82.83
76195;BME280;64964;48.694;21.206;2022-12-24T01:31:16;97327.44;;;2.84;83.38
76195;BME280;64964;48.694;21.206;2022-12-24T01:33:43;97331.81;;;2.83;83.43
76195;BME280;64964;48.694;21.206;2022-12-24T01:36:09;97331.28;;;2.80;83.54
76195;BME280;64964;48.694;21.206;2022-12-24T01:38:35;97316.47;;;2.80;83.62
76195;BME280;64964;48.694;21.206;2022-12-24T01:41:00;97322.50;;;2.81;83.81
76195;BME280;64964;48.694;21.206;2022-12-24T01:43:45;97315.50;;;2.81;83.71
76195;BME280;64964;48.694;21.206;2022-12-24T01:46:18;97306.53;;;2.84;83.89
76195;BME280;64964;48.694;21.206;2022-12-24T01:48:52;97320.28;;;2.86;83.69
76195;BME280;64964;48.694;21.206;2022-12-24T01:51:39;97309.97;;;2.84;84.09
76195;BME280;64964;48.694;21.206;2022-12-24T01:54:11;97303.50;;;2.88;83.98
76195;BME280;64964;48.694;21.206;2022-12-24T01:56:41;97312.06;;;2.90;83.77
76195;BME280;64964;48.694;21.206;2022-12-24T01:59:11;97308.47;;;2.91;83.82
76195;BME280;64964;48.694;21.206;2022-12-24T02:01:38;97299.66;;;2.92;83.38
76195;BME280;64964;48.694;21.206;2022-12-24T02:04:10;97300.53;;;2.93;83.43
76195;BME280;64964;48.694;21.206;2022-12-24T02:06:36;97296.38;;;2.90;83.38
76195;BME280;64964;48.694;21.206;2022-12-24T02:09:02;97298.03;;;2.91;83.79
76195;BME280;64964;48.694;21.206;2022-12-24T02:11:29;97289.09;;;2.94;83.95
76195;BME280;64964;48.694;21.206;2022-12-24T02:13:57;97276.59;;;2.97;83.60
76195;BME280;64964;48.694;21.206;2022-12-24T02:16:45;97269.72;;;2.96;83.64
76195;BME280;64964;48.694;21.206;2022-12-24T02:22:17;97255.41;;;3.00;83.66
76195;BME280;64964;48.694;21.206;2022-12-24T02:33:08;97250.34;;;2.99;83.68
76195;BME280;64964;48.694;21.206;2022-12-24T02:35:46;97246.63;;;3.02;83.19
76195;BME280;64964;48.694;21.206;2022-12-24T02:38:25;97234.16;;;2.86;84.10
76195;BME280;64964;48.694;21.206;2022-12-24T02:40:57;97233.88;;;2.89;83.74
76195;BME280;64964;48.694;21.206;2022-12-24T02:43:34;97230.97;;;2.92;83.89
76195;BME280;64964;48.694;21.206;2022-12-24T02:46:06;97228.09;;;2.95;83.72
76195;BME280;64964;48.694;21.206;2022-12-24T02:48:35;97235.75;;;2.96;83.24
76195;BME280;64964;48.694;21.206;2022-12-24T02:51:05;97233.16;;;2.96;83.27
76195;BME280;64964;48.694;21.206;2022-12-24T02:53:32;97241.97;;;2.95;83.10
76195;BME280;64964;48.694;21.206;2022-12-24T02:56:14;97237.16;;;2.91;82.99
76195;BME280;64964;48.694;21.206;2022-12-24T03:04:22;97232.94;;;2.80;82.96
76195;BME280;64964;48.694;21.206;2022-12-24T03:10:01;97238.84;;;2.72;83.32
76195;BME280;64964;48.694;21.206;2022-12-24T03:12:32;97224.44;;;2.68;83.47
76195;BME280;64964;48.694;21.206;2022-12-24T03:14:59;97221.13;;;2.66;83.43
76195;BME280;64964;48.694;21.206;2022-12-24T03:17:25;97225.38;;;2.67;83.65
76195;BME280;64964;48.694;21.206;2022-12-24T03:19:53;97231.44;;;2.68;83.32
76195;BME280;64964;48.694;21.206;2022-12-24T03:22:19;97231.56;;;2.66;83.26
76195;BME280;64964;48.694;21.206;2022-12-24T03:24:45;97228.56;;;2.61;83.41
76195;BME280;64964;48.694;21.206;2022-12-24T03:27:11;97235.00;;;2.57;83.79
76195;BME280;64964;48.694;21.206;2022-12-24T03:29:39;97228.81;;;2.58;83.70
76195;BME280;64964;48.694;21.206;2022-12-24T03:32:04;97236.38;;;2.61;83.97
76195;BME280;64964;48.694;21.206;2022-12-24T03:34:30;97235.28;;;2.64;83.94
76195;BME280;64964;48.694;21.206;2022-12-24T03:36:55;97237.59;;;2.67;83.86
76195;BME280;64964;48.694;21.206;2022-12-24T03:39:21;97237.31;;;2.70;83.93
76195;BME280;64964;48.694;21.206;2022-12-24T03:41:47;97240.63;;;2.72;83.89
76195;BME280;64964;48.694;21.206;2022-12-24T03:44:12;97240.34;;;2.75;83.81
76195;BME280;64964;48.694;21.206;2022-12-24T03:46:38;97236.50;;;2.79;83.98
76195;BME280;64964;48.694;21.206;2022-12-24T03:49:03;97229.06;;;2.84;83.75
76195;BME280;64964;48.694;21.206;2022-12-24T03:51:28;97234.16;;;2.86;83.93
76195;BME280;64964;48.694;21.206;2022-12-24T03:53:55;97229.75;;;2.86;83.85
76195;BME280;64964;48.694;21.206;2022-12-24T03:56:21;97228.66;;;2.89;83.72
76195;BME280;64964;48.694;21.206;2022-12-24T03:58:48;97217.09;;;2.91;84.25
76195;BME280;64964;48.694;21.206;2022-12-24T04:01:14;97204.44;;;2.96;84.02
76195;BME280;64964;48.694;21.206;2022-12-24T04:03:39;97194.53;;;3.00;83.74
76195;BME280;64964;48.694;21.206;2022-12-24T04:06:06;97193.16;;;2.96;83.76
76195;BME280;64964;48.694;21.206;2022-12-24T04:08:32;97185.34;;;2.96;84.09
76195;BME280;64964;48.694;21.206;2022-12-24T04:10:58;97193.72;;;2.99;84.07
76195;BME280;64964;48.694;21.206;2022-12-24T04:13:23;97201.56;;;2.99;83.88
76195;BME280;64964;48.694;21.206;2022-12-24T04:15:59;97201.69;;;2.98;84.27
76195;BME280;64964;48.694;21.206;2022-12-24T04:18:25;97202.25;;;3.02;84.08
76195;BME280;64964;48.694;21.206;2022-12-24T04:20:51;97198.38;;;3.06;84.33
76195;BME280;64964;48.694;21.206;2022-12-24T04:23:16;97192.75;;;3.10;84.15
76195;BME280;64964;48.694;21.206;2022-12-24T04:25:42;97189.00;;;3.13;83.84
76195;BME280;64964;48.694;21.206;2022-12-24T04:28:07;97187.09;;;3.15;84.15
76195;BME280;64964;48.694;21.206;2022-12-24T04:30:32;97176.63;;;3.15;83.96
76195;BME280;64964;48.694;21.206;2022-12-24T04:32:58;97167.00;;;3.15;84.07
76195;BME280;64964;48.694;21.206;2022-12-24T04:35:23;97169.63;;;3.15;84.25
76195;BME280;64964;48.694;21.206;2022-12-24T04:37:48;97170.44;;;3.16;84.18
76195;BME280;64964;48.694;21.206;2022-12-24T04:40:14;97173.59;;;3.19;84.47
76195;BME280;64964;48.694;21.206;2022-12-24T04:42:39;97173.84;;;3.26;84.24
76195;BME280;64964;48.694;21.206;2022-12-24T04:45:05;97171.63;;;3.31;84.18
76195;BME280;64964;48.694;21.206;2022-12-24T04:47:30;97168.69;;;3.34;84.21
76195;BME280;64964;48.694;21.206;2022-12-24T04:49:56;97164.72;;;3.30;84.42
76195;BME280;64964;48.694;21.206;2022-12-24T04:52:21;97166.94;;;3.35;84.08
76195;BME280;64964;48.694;21.206;2022-12-24T04:54:46;97165.06;;;3.17;83.73
76195;BME280;64964;48.694;21.206;2022-12-24T04:57:12;97162.59;;;3.16;83.89
76195;BME280;64964;48.694;21.206;2022-12-24T04:59:37;97152.97;;;3.16;83.88
76195;BME280;64964;48.694;21.206;2022-12-24T05:02:02;97141.72;;;3.16;83.57
76195;BME280;64964;48.694;21.206;2022-12-24T05:04:28;97142.00;;;3.13;83.80
76195;BME280;64964;48.694;21.206;2022-12-24T05:06:53;97159.19;;;3.15;83.81
76195;BME280;64964;48.694;21.206;2022-12-24T05:09:18;97166.84;;;3.17;83.77
76195;BME280;64964;48.694;21.206;2022-12-24T05:11:44;97183.06;;;3.20;83.75
76195;BME280;64964;48.694;21.206;2022-12-24T05:14:09;97195.03;;;3.23;83.57
76195;BME280;64964;48.694;21.206;2022-12-24T05:16:34;97187.03;;;3.24;84.13
76195;BME280;64964;48.694;21.206;2022-12-24T05:19:00;97176.88;;;3.21;84.06
76195;BME280;64964;48.694;21.206;2022-12-24T05:21:25;97188.44;;;3.19;83.69
76195;BME280;64964;48.694;21.206;2022-12-24T05:23:51;97175.00;;;3.14;84.23
76195;BME280;64964;48.694;21.206;2022-12-24T05:26:44;97170.19;;;3.09;83.89
76195;BME280;64964;48.694;21.206;2022-12-24T05:29:10;97185.75;;;3.01;84.36
76195;BME280;64964;48.694;21.206;2022-12-24T05:31:39;97195.34;;;3.00;84.52
76195;BME280;64964;48.694;21.206;2022-12-24T05:34:05;97197.97;;;3.00;84.63
76195;BME280;64964;48.694;21.206;2022-12-24T05:36:31;97194.41;;;3.02;84.62
76195;BME280;64964;48.694;21.206;2022-12-24T05:38:56;97200.03;;;3.07;84.51
76195;BME280;64964;48.694;21.206;2022-12-24T05:41:22;97203.03;;;3.12;84.13
76195;BME280;64964;48.694;21.206;2022-12-24T05:43:48;97209.75;;;3.14;84.25
76195;BME280;64964;48.694;21.206;2022-12-24T05:46:16;97203.41;;;3.17;84.11
76195;BME280;64964;48.694;21.206;2022-12-24T05:48:43;97199.72;;;3.19;83.97
76195;BME280;64964;48.694;21.206;2022-12-24T05:51:10;97215.22;;;3.21;83.81
76195;BME280;64964;48.694;21.206;2022-12-24T05:53:36;97195.84;;;3.23;83.48
76195;BME280;64964;48.694;21.206;2022-12-24T05:56:16;97203.47;;;3.07;83.45
76195;BME280;64964;48.694;21.206;2022-12-24T05:58:42;97208.84;;;3.06;83.78
76195;BME280;64964;48.694;21.206;2022-12-24T06:01:09;97208.97;;;3.04;83.87
76195;BME280;64964;48.694;21.206;2022-12-24T06:03:35;97202.63;;;3.07;83.74
76195;BME280;64964;48.694;21.206;2022-12-24T06:06:06;97199.34;;;3.05;83.74
76195;BME280;64964;48.694;21.206;2022-12-24T06:08:33;97190.56;;;3.06;83.45
76195;BME280;64964;48.694;21.206;2022-12-24T06:11:01;97203.72;;;3.04;83.62
76195;BME280;64964;48.694;21.206;2022-12-24T06:13:27;97199.34;;;3.05;83.72
76195;BME280;64964;48.694;21.206;2022-12-24T06:15:55;97193.31;;;2.94;83.63
76195;BME280;64964;48.694;21.206;2022-12-24T06:18:20;97196.59;;;2.96;83.83
76195;BME280;64964;48.694;21.206;2022-12-24T06:20:49;97189.31;;;3.00;83.86
76195;BME280;64964;48.694;21.206;2022-12-24T06:23:15;97168.31;;;3.02;83.95
76195;BME280;64964;48.694;21.206;2022-12-24T06:25:40;97185.47;;;3.04;83.64
76195;BME280;64964;48.694;21.206;2022-12-24T06:28:05;97182.03;;;3.04;83.76
76195;BME280;64964;48.694;21.206;2022-12-24T06:30:31;97193.16;;;3.06;83.52
76195;BME280;64964;48.694;21.206;2022-12-24T06:32:56;97212.25;;;3.06;83.50
76195;BME280;64964;48.694;21.206;2022-12-24T06:35:21;97212.38;;;3.05;83.64
76195;BME280;64964;48.694;21.206;2022-12-24T06:37:47;97219.97;;;2.88;83.78
76195;BME280;64964;48.694;21.206;2022-12-24T06:40:12;97219.59;;;2.83;84.06
76195;BME280;64964;48.694;21.206;2022-12-24T06:42:37;97231.81;;;2.83;84.04
76195;BME280;64964;48.694;21.206;2022-12-24T06:45:03;97226.44;;;2.84;84.32
76195;BME280;64964;48.694;21.206;2022-12-24T06:47:29;97219.59;;;2.83;84.88
76195;BME280;64964;48.694;21.206;2022-12-24T06:49:54;97219.97;;;2.88;84.14
76195;BME280;64964;48.694;21.206;2022-12-24T06:52:19;97226.88;;;2.89;84.46
76195;BME280;64964;48.694;21.206;2022-12-24T06:54:45;97230.03;;;2.93;84.40
76195;BME280;64964;48.694;21.206;2022-12-24T06:57:10;97239.22;;;2.97;84.13
76195;BME280;64964;48.694;21.206;2022-12-24T06:59:35;97248.53;;;2.99;84.00
76195;BME280;64964;48.694;21.206;2022-12-24T07:02:01;97252.69;;;3.02;83.81
76195;BME280;64964;48.694;21.206;2022-12-24T07:04:26;97261.19;;;3.04;83.74
76195;BME280;64964;48.694;21.206;2022-12-24T07:06:52;97260.22;;;3.05;84.20
76195;BME280;64964;48.694;21.206;2022-12-24T07:09:17;97260.22;;;3.05;83.78
76195;BME280;64964;48.694;21.206;2022-12-24T07:11:42;97273.16;;;3.07;83.76
76195;BME280;64964;48.694;21.206;2022-12-24T07:14:08;97264.50;;;3.06;83.79
76195;BME280;64964;48.694;21.206;2022-12-24T07:16:33;97273.81;;;3.09;84.24
76195;BME280;64964;48.694;21.206;2022-12-24T07:18:58;97269.16;;;3.03;84.99
76195;BME280;64964;48.694;21.206;2022-12-24T07:21:24;97277.00;;;3.03;84.70
76195;BME280;64964;48.694;21.206;2022-12-24T07:23:49;97291.28;;;3.08;84.36
76195;BME280;64964;48.694;21.206;2022-12-24T07:26:14;97295.41;;;3.11;84.29
76195;BME280;64964;48.694;21.206;2022-12-24T07:28:40;97284.81;;;3.12;84.66
76195;BME280;64964;48.694;21.206;2022-12-24T07:31:05;97291.41;;;3.16;84.52
76195;BME280;64964;48.694;21.206;2022-12-24T07:33:31;97293.47;;;3.13;84.64
76195;BME280;64964;48.694;21.206;2022-12-24T07:36:07;97294.28;;;3.13;84.72
76195;BME280;64964;48.694;21.206;2022-12-24T07:38:33;97294.97;;;3.15;84.63
76195;BME280;64964;48.694;21.206;2022-12-24T07:40:59;97306.94;;;3.18;84.77
76195;BME280;64964;48.694;21.206;2022-12-24T07:43:25;97299.63;;;3.21;84.69
76195;BME280;64964;48.694;21.206;2022-12-24T07:45:54;97319.16;;;3.27;84.68
76195;BME280;64964;48.694;21.206;2022-12-24T07:48:20;97325.75;;;3.31;84.46
76195;BME280;64964;48.694;21.206;2022-12-24T07:50:48;97310.63;;;3.35;84.29
76195;BME280;64964;48.694;21.206;2022-12-24T07:53:14;97311.13;;;3.38;84.73
76195;BME280;64964;48.694;21.206;2022-12-24T07:55:39;97311.44;;;3.35;85.45
76195;BME280;64964;48.694;21.206;2022-12-24T07:58:04;97320.34;;;3.42;84.96
76195;BME280;64964;48.694;21.206;2022-12-24T08:00:30;97324.19;;;3.48;85.02
76195;BME280;64964;48.694;21.206;2022-12-24T08:02:55;97316.06;;;3.51;85.05
76195;BME280;64964;48.694;21.206;2022-12-24T08:05:21;97315.84;;;3.35;85.99
76195;BME280;64964;48.694;21.206;2022-12-24T08:07:46;97322.84;;;3.34;86.13
76195;BME280;64964;48.694;21.206;2022-12-24T08:10:11;97320.94;;;3.27;86.29
76195;BME280;64964;48.694;21.206;2022-12-24T08:12:37;97320.78;;;3.38;85.52
76195;BME280;64964;48.694;21.206;2022-12-24T08:15:02;97315.28;;;3.41;85.67
76195;BME280;64964;48.694;21.206;2022-12-24T08:17:28;97304.38;;;3.45;85.53
76195;BME280;64964;48.694;21.206;2022-12-24T08:19:53;97313.03;;;3.56;85.26
76195;BME280;64964;48.694;21.206;2022-12-24T08:22:18;97324.44;;;3.64;85.13
76195;BME280;64964;48.694;21.206;2022-12-24T08:24:43;97311.75;;;3.69;84.95
76195;BME280;64964;48.694;21.206;2022-12-24T08:27:09;97327.88;;;3.65;84.26
76195;BME280;64964;48.694;21.206;2022-12-24T08:29:34;97332.16;;;3.56;84.01
76195;BME280;64964;48.694;21.206;2022-12-24T08:32:00;97349.19;;;3.60;84.40
76195;BME280;64964;48.694;21.206;2022-12-24T08:34:25;97342.56;;;3.66;84.29
76195;BME280;64964;48.694;21.206;2022-12-24T08:36:50;97338.72;;;3.70;83.99
76195;BME280;64964;48.694;21.206;2022-12-24T08:39:16;97346.41;;;3.71;84.05
76195;BME280;64964;48.694;21.206;2022-12-24T08:41:41;97353.69;;;3.78;84.13
76195;BME280;64964;48.694;21.206;2022-12-24T08:44:06;97355.16;;;3.80;83.79
76195;BME280;64964;48.694;21.206;2022-12-24T08:46:32;97363.44;;;3.85;84.06
76195;BME280;64964;48.694;21.206;2022-12-24T08:48:57;97354.47;;;3.88;83.79
76195;BME280;64964;48.694;21.206;2022-12-24T08:51:22;97346.94;;;3.85;83.75
76195;BME280;64964;48.694;21.206;2022-12-24T08:53:48;97364.53;;;3.83;83.78
76195;BME280;64964;48.694;21.206;2022-12-24T08:56:13;97358.19;;;3.85;83.84
76195;BME280;64964;48.694;21.206;2022-12-24T08:58:39;97369.22;;;3.89;83.93
76195;BME280;64964;48.694;21.206;2022-12-24T09:01:16;97375.66;;;3.94;84.01
76195;BME280;64964;48.694;21.206;2022-12-24T09:03:41;97377.81;;;3.99;83.77
76195;BME280;64964;48.694;21.206;2022-12-24T09:06:08;97366.94;;;4.04;83.58
76195;BME280;64964;48.694;21.206;2022-12-24T09:08:34;97370.91;;;4.08;83.61
76195;BME280;64964;48.694;21.206;2022-12-24T09:11:21;97377.66;;;4.10;83.67
76195;BME280;64964;48.694;21.206;2022-12-24T09:13:46;97381.47;;;4.16;83.30
76195;BME280;64964;48.694;21.206;2022-12-24T09:16:12;97378.41;;;4.20;83.24
76195;BME280;64964;48.694;21.206;2022-12-24T09:18:38;97371.13;;;4.24;83.27
76195;BME280;64964;48.694;21.206;2022-12-24T09:21:06;97388.16;;;4.28;83.13
76195;BME280;64964;48.694;21.206;2022-12-24T09:23:35;97391.59;;;4.29;83.00
76195;BME280;64964;48.694;21.206;2022-12-24T09:26:08;97392.09;;;4.14;82.95
76195;BME280;64964;48.694;21.206;2022-12-24T09:28:34;97403.59;;;4.21;83.32
76195;BME280;64964;48.694;21.206;2022-12-24T09:31:01;97404.44;;;4.22;83.36
76195;BME280;64964;48.694;21.206;2022-12-24T09:33:28;97401.31;;;4.18;83.01
76195;BME280;64964;48.694;21.206;2022-12-24T09:35:54;97411.91;;;4.17;83.01
76195;BME280;64964;48.694;21.206;2022-12-24T09:38:20;97405.19;;;4.14;83.24
76195;BME280;64964;48.694;21.206;2022-12-24T09:40:46;97402.13;;;4.09;83.20
76195;BME280;64964;48.694;21.206;2022-12-24T09:43:18;97420.44;;;4.09;83.29
76195;BME280;64964;48.694;21.206;2022-12-24T09:48:29;97398.91;;;3.88;83.50
76195;BME280;64964;48.694;21.206;2022-12-24T09:51:03;97416.00;;;3.82;83.95
76195;BME280;64964;48.694;21.206;2022-12-24T09:56:16;97431.41;;;3.85;83.74
76195;BME280;64964;48.694;21.206;2022-12-24T09:58:46;97425.06;;;3.88;83.79
76195;BME280;64964;48.694;21.206;2022-12-24T10:01:14;97420.97;;;3.85;83.96
76195;BME280;64964;48.694;21.206;2022-12-24T10:03:41;97431.53;;;3.84;83.76
76195;BME280;64964;48.694;21.206;2022-12-24T10:06:33;97436.50;;;3.87;83.60
76195;BME280;64964;48.694;21.206;2022-12-24T10:09:16;97439.09;;;3.87;83.46
76195;BME280;64964;48.694;21.206;2022-12-24T10:15:07;97429.19;;;3.90;83.78
76195;BME280;64964;48.694;21.206;2022-12-24T10:25:22;97459.88;;;3.88;83.26
76195;BME280;64964;48.694;21.206;2022-12-24T10:27:51;97453.81;;;3.88;83.46
76195;BME280;64964;48.694;21.206;2022-12-24T10:30:21;97452.47;;;3.84;83.43
76195;BME280;64964;48.694;21.206;2022-12-24T10:32:49;97440.19;;;3.84;83.33
76195;BME280;64964;48.694;21.206;2022-12-24T10:37:45;97449.28;;;3.90;83.73
76195;BME280;64964;48.694;21.206;2022-12-24T10:41:00;97453.94;;;3.96;83.46
76195;BME280;64964;48.694;21.206;2022-12-24T10:43:21;97445.81;;;3.99;83.92
76195;BME280;64964;48.694;21.206;2022-12-24T10:45:54;97440.97;;;4.04;83.46
76195;BME280;64964;48.694;21.206;2022-12-24T10:48:27;97454.47;;;4.09;83.37
76195;BME280;64964;48.694;21.206;2022-12-24T10:53:42;97451.03;;;4.09;83.20
76195;BME280;64964;48.694;21.206;2022-12-24T10:56:10;97440.72;;;4.07;83.26
76195;BME280;64964;48.694;21.206;2022-12-24T10:58:43;97445.66;;;4.00;83.12
76195;BME280;64964;48.694;21.206;2022-12-24T11:01:08;97446.09;;;3.96;83.23
76195;BME280;64964;48.694;21.206;2022-12-24T11:03:35;97452.31;;;3.95;83.26
76195;BME280;64964;48.694;21.206;2022-12-24T11:06:11;97441.72;;;3.87;83.38
76195;BME280;64964;48.694;21.206;2022-12-24T11:08:40;97433.47;;;3.82;83.54
76195;BME280;64964;48.694;21.206;2022-12-24T11:11:15;97431.88;;;3.61;84.77
76195;BME280;64964;48.694;21.206;2022-12-24T11:13:45;97433.38;;;3.64;84.03
76195;BME280;64964;48.694;21.206;2022-12-24T11:16:32;97450.44;;;3.68;84.58
76195;BME280;64964;48.694;21.206;2022-12-24T11:19:02;97451.50;;;3.75;84.27
76195;BME280;64964;48.694;21.206;2022-12-24T11:21:31;97450.25;;;3.79;84.58
76195;BME280;64964;48.694;21.206;2022-12-24T11:23:59;97456.44;;;3.88;84.44
76195;BME280;64964;48.694;21.206;2022-12-24T11:26:29;97465.38;;;3.95;84.07
76195;BME280;64964;48.694;21.206;2022-12-24T11:29:05;97462.59;;;3.96;84.08
76195;BME280;64964;48.694;21.206;2022-12-24T11:31:30;97461.09;;;4.04;83.67
76195;BME280;64964;48.694;21.206;2022-12-24T11:34:00;97464.09;;;4.09;83.93
76195;BME280;64964;48.694;21.206;2022-12-24T11:36:25;97461.06;;;4.13;83.58
76195;BME280;64964;48.694;21.206;2022-12-24T11:38:56;97466.44;;;4.12;83.17
76195;BME280;64964;48.694;21.206;2022-12-24T11:41:23;97469.31;;;4.09;83.32
76195;BME280;64964;48.694;21.206;2022-12-24T11:43:51;97472.91;;;4.08;83.50
76195;BME280;64964;48.694;21.206;2022-12-24T11:51:35;97474.72;;;4.07;83.43
76195;BME280;64964;48.694;21.206;2022-12-24T11:54:23;97467.69;;;4.08;83.77
76195;BME280;64964;48.694;21.206;2022-12-24T11:56:52;97477.44;;;4.15;83.51
76195;BME280;64964;48.694;21.206;2022-12-24T11:59:30;97485.28;;;4.15;83.23
76195;BME280;64964;48.694;21.206;2022-12-24T12:04:39;97487.63;;;4.09;83.58
76195;BME280;64964;48.694;21.206;2022-12-24T12:07:17;97494.13;;;4.05;83.42
76195;BME280;64964;48.694;21.206;2022-12-24T12:09:48;97491.94;;;4.00;83.26
76195;BME280;64964;48.694;21.206;2022-12-24T12:12:19;97497.16;;;4.00;83.08
76195;BME280;64964;48.694;21.206;2022-12-24T12:14:53;97493.56;;;4.01;83.57
76195;BME280;64964;48.694;21.206;2022-12-24T12:20:45;97506.78;;;4.09;83.96
76195;BME280;64964;48.694;21.206;2022-12-24T12:23:02;97502.78;;;4.15;83.61
76195;BME280;64964;48.694;21.206;2022-12-24T12:25:36;97489.13;;;4.21;83.67
76195;BME280;64964;48.694;21.206;2022-12-24T12:28:06;97501.66;;;4.27;83.79
76195;BME280;64964;48.694;21.206;2022-12-24T12:30:38;97515.94;;;4.33;83.43
76195;BME280;64964;48.694;21.206;2022-12-24T12:33:24;97535.09;;;4.33;83.25
76195;BME280;64964;48.694;21.206;2022-12-24T12:35:52;97527.13;;;4.25;83.37
76195;BME280;64964;48.694;21.206;2022-12-24T12:38:24;97539.38;;;4.24;83.59
76195;BME280;64964;48.694;21.206;2022-12-24T12:44:00;97548.19;;;4.33;83.74
76195;BME280;64964;48.694;21.206;2022-12-24T12:51:52;97551.47;;;4.45;83.47
76195;BME280;64964;48.694;21.206;2022-12-24T12:54:36;97542.09;;;4.42;83.39
76195;BME280;64964;48.694;21.206;2022-12-24T12:57:10;97535.22;;;4.41;83.08
76195;BME280;64964;48.694;21.206;2022-12-24T12:59:41;97547.63;;;4.39;83.25
76195;BME280;64964;48.694;21.206;2022-12-24T13:02:22;97547.63;;;4.39;83.42
76195;BME280;64964;48.694;21.206;2022-12-24T13:21:56;97571.72;;;4.33;83.69
76195;BME280;64964;48.694;21.206;2022-12-24T13:24:24;97570.47;;;4.37;83.61
76195;BME280;64964;48.694;21.206;2022-12-24T13:34:48;97583.81;;;4.54;83.38
76195;BME280;64964;48.694;21.206;2022-12-24T13:43:05;97598.09;;;4.59;83.37
76195;BME280;64964;48.694;21.206;2022-12-24T13:53:21;97597.69;;;4.64;83.48
76195;BME280;64964;48.694;21.206;2022-12-24T13:58:45;97602.22;;;4.71;83.20
76195;BME280;64964;48.694;21.206;2022-12-24T14:01:19;97602.22;;;4.71;83.11
76195;BME280;64964;48.694;21.206;2022-12-24T14:03:49;97591.75;;;4.71;83.23
76195;BME280;64964;48.694;21.206;2022-12-24T14:08:45;97607.88;;;4.77;83.10
76195;BME280;64964;48.694;21.206;2022-12-24T14:11:21;97614.75;;;4.78;83.43
76195;BME280;64964;48.694;21.206;2022-12-24T14:16:21;97617.22;;;4.79;83.19
76195;BME280;64964;48.694;21.206;2022-12-24T14:21:24;97617.66;;;4.74;83.54
76195;BME280;64964;48.694;21.206;2022-12-24T14:23:53;97619.28;;;4.75;83.05
76195;BME280;64964;48.694;21.206;2022-12-24T14:26:23;97628.28;;;4.73;83.36
76195;BME280;64964;48.694;21.206;2022-12-24T14:31:19;97638.44;;;4.76;83.39
76195;BME280;64964;48.694;21.206;2022-12-24T14:33:45;97652.50;;;4.75;83.44
76195;BME280;64964;48.694;21.206;2022-12-24T14:36:14;97645.47;;;4.75;83.47
76195;BME280;64964;48.694;21.206;2022-12-24T14:38:43;97648.41;;;4.72;83.62
76195;BME280;64964;48.694;21.206;2022-12-24T14:46:33;97630.63;;;4.66;82.95
76195;BME280;64964;48.694;21.206;2022-12-24T14:49:37;97639.72;;;4.62;83.01
76195;BME280;64964;48.694;21.206;2022-12-24T14:52:18;97643.03;;;4.55;83.21
76195;BME280;64964;48.694;21.206;2022-12-24T14:54:49;97663.31;;;4.53;83.02
76195;BME280;64964;48.694;21.206;2022-12-24T14:57:20;97672.25;;;4.50;82.90
76195;BME280;64964;48.694;21.206;2022-12-24T14:59:53;97672.41;;;4.48;83.00
76195;BME280;64964;48.694;21.206;2022-12-24T15:05:10;97673.78;;;4.43;82.64
76195;BME280;64964;48.694;21.206;2022-12-24T15:07:39;97667.31;;;4.37;82.87